createdAt,value
2022-10-01T00:04:43.118Z,14.5
2022-10-01T00:09:45.097Z,14.4
2022-10-01T00:14:47.109Z,14.4
2022-10-01T00:19:49.081Z,14.3
2022-10-01T00:24:51.084Z,14.2
2022-10-01T00:29:53.161Z,14.2
2022-10-01T00:34:55.248Z,14.2
2022-10-01T00:39:58.288Z,14.3
2022-10-01T00:45:00.322Z,14.2
2022-10-01T00:50:02.882Z,14.3
2022-10-01T00:55:04.848Z,14.2
2022-10-01T01:00:06.773Z,14.4
2022-10-01T01:05:09.038Z,14.4
2022-10-01T01:10:11.140Z,14.5
2022-10-01T01:15:13.172Z,14.6
2022-10-01T01:20:16.242Z,14.6
2022-10-01T01:25:18.307Z,14.6
2022-10-01T01:30:20.339Z,14.6
2022-10-01T01:35:22.603Z,14.6
2022-10-01T01:40:25.069Z,14.6
2022-10-01T01:45:27.159Z,14.6
2022-10-01T01:50:29.812Z,14.5
2022-10-01T01:55:31.828Z,14.4
2022-10-01T02:00:33.987Z,14.4
2022-10-01T02:05:36.472Z,14.3
2022-10-01T02:10:38.386Z,14.3
2022-10-01T02:15:41.176Z,14.3
2022-10-01T02:20:43.794Z,14.3
2022-10-01T02:25:45.724Z,14.3
2022-10-01T02:30:47.931Z,14.3
2022-10-01T02:35:49.945Z,14.3
2022-10-01T02:40:52.127Z,14.3
2022-10-01T02:45:54.636Z,14.3
2022-10-01T02:50:57.137Z,14.3
2022-10-01T02:55:59.131Z,14.3
2022-10-01T03:01:01.106Z,14.3
2022-10-01T03:06:03.663Z,14.2
2022-10-01T03:11:05.770Z,14.2
2022-10-01T03:16:07.856Z,14.2
2022-10-01T03:21:10.422Z,14.3
2022-10-01T03:26:12.472Z,14.3
2022-10-01T03:31:14.607Z,14.4
2022-10-01T03:36:17.154Z,14.4
2022-10-01T03:41:19.393Z,14.4
2022-10-01T03:46:21.389Z,14.4
2022-10-01T03:51:24.025Z,14.3
2022-10-01T03:56:26.151Z,14.3
2022-10-01T04:01:28.339Z,14.3
2022-10-01T04:06:30.441Z,14.3
2022-10-01T04:11:33.961Z,14.4
2022-10-01T04:16:37.467Z,14.4
2022-10-01T04:21:40.149Z,14.4
2022-10-01T04:26:42.137Z,14.4
2022-10-01T04:31:44.372Z,14.3
2022-10-01T04:36:46.440Z,14.3
2022-10-01T04:41:48.784Z,14.3
2022-10-01T04:46:51.246Z,14.3
2022-10-01T04:51:53.523Z,14.3
2022-10-01T04:56:55.632Z,14.3
2022-10-01T05:01:57.977Z,14.3
2022-10-01T05:07:00.413Z,14.4
2022-10-01T05:12:02.362Z,14.3
2022-10-01T05:17:04.388Z,14.4
2022-10-01T05:22:06.341Z,14.5
2022-10-01T05:27:08.550Z,14.5
2022-10-01T05:32:11.029Z,14.6
2022-10-01T05:42:13.394Z,14.6
2022-10-01T05:47:15.297Z,14.6
2022-10-01T05:52:17.639Z,14.6
2022-10-01T05:57:19.542Z,14.6
2022-10-01T06:02:21.995Z,14.7
2022-10-01T06:07:24.095Z,14.7
2022-10-01T06:12:26.019Z,14.7
2022-10-01T06:17:28.027Z,14.8
2022-10-01T06:22:29.995Z,14.6
2022-10-01T06:27:32.071Z,14.6
2022-10-01T06:32:36.826Z,14.7
2022-10-01T06:37:38.752Z,14.7
2022-10-01T06:42:41.203Z,14.8
2022-10-01T06:47:43.159Z,14.9
2022-10-01T06:52:45.059Z,14.9
2022-10-01T06:57:47.020Z,15.2
2022-10-01T07:02:49.175Z,15.3
2022-10-01T07:07:51.492Z,15.2
2022-10-01T07:12:53.409Z,15.4
2022-10-01T07:17:55.330Z,15.5
2022-10-01T07:22:57.312Z,15.6
2022-10-01T07:27:59.434Z,15.3
2022-10-01T07:33:01.576Z,15.2
2022-10-01T07:38:03.560Z,15.4
2022-10-01T07:43:05.745Z,15.4
2022-10-01T07:48:07.663Z,15.5
2022-10-01T07:53:09.661Z,15.6
2022-10-01T07:58:11.681Z,15.7
2022-10-01T08:03:13.659Z,15.9
2022-10-01T08:08:15.825Z,15.9
2022-10-01T08:13:17.877Z,15.9
2022-10-01T08:18:19.974Z,16.2
2022-10-01T08:23:21.882Z,16.1
2022-10-01T08:28:24.007Z,16.1
2022-10-01T08:33:26.049Z,16.2
2022-10-01T08:38:28.258Z,16
2022-10-01T08:43:30.203Z,15.9
2022-10-01T08:48:32.094Z,15.9
2022-10-01T08:53:34.004Z,15.9
2022-10-01T08:58:35.901Z,15.9
2022-10-01T09:03:37.772Z,16
2022-10-01T09:08:39.661Z,16.1
2022-10-01T09:18:42.119Z,16
2022-10-01T09:28:45.546Z,16.1
2022-10-01T09:33:47.678Z,16.3
2022-10-01T09:38:49.919Z,16.4
2022-10-01T09:43:51.972Z,16.5
2022-10-01T09:48:53.884Z,16.4
2022-10-01T09:53:56.225Z,16.6
2022-10-01T09:58:58.157Z,16.6
2022-10-01T10:04:00.119Z,16.6
2022-10-01T10:09:02.756Z,16.6
2022-10-01T10:14:04.644Z,16.6
2022-10-01T10:19:07.086Z,16.6
2022-10-01T10:24:09.481Z,16.8
2022-10-01T10:29:11.435Z,16.7
2022-10-01T10:34:13.364Z,16.8
2022-10-01T10:39:15.828Z,17.8
2022-10-01T10:44:18.182Z,17.7
2022-10-01T10:49:20.209Z,18.6
2022-10-01T10:54:22.135Z,18.7
2022-10-01T10:59:24.494Z,18.1
2022-10-01T11:04:26.418Z,18.1
2022-10-01T11:09:28.783Z,17.8
2022-10-01T11:14:30.973Z,17.8
2022-10-01T11:19:33.289Z,17.9
2022-10-01T11:24:35.730Z,18
2022-10-01T11:29:37.939Z,18
2022-10-01T11:34:39.932Z,17.9
2022-10-01T11:39:42.450Z,17.8
2022-10-01T11:44:44.764Z,17.8
2022-10-01T11:49:46.670Z,17.9
2022-10-01T11:54:50.469Z,17.9
2022-10-01T11:59:57.491Z,18.1
2022-10-01T12:04:59.728Z,18.3
2022-10-01T12:10:01.857Z,18.4
2022-10-01T12:15:08.700Z,20.4
2022-10-01T12:20:10.730Z,20.4
2022-10-01T12:25:12.816Z,20
2022-10-01T12:30:14.790Z,20
2022-10-01T12:35:16.696Z,20.1
2022-10-01T12:40:18.694Z,20.3
2022-10-01T12:45:20.633Z,19.7
2022-10-01T12:50:22.711Z,19.4
2022-10-01T12:55:24.700Z,19.4
2022-10-01T13:00:26.621Z,19.3
2022-10-01T13:05:28.682Z,19.4
2022-10-01T13:10:31.105Z,19.5
2022-10-01T13:15:33.422Z,19.5
2022-10-01T13:20:35.382Z,19.4
2022-10-01T13:25:37.820Z,19.4
2022-10-01T13:30:40.527Z,19.6
2022-10-01T13:35:42.635Z,19.6
2022-10-01T13:40:44.841Z,19.7
2022-10-01T13:45:47.106Z,19.7
2022-10-01T13:50:49.246Z,19.8
2022-10-01T13:55:51.276Z,20.1
2022-10-01T14:00:53.242Z,20.3
2022-10-01T14:05:55.206Z,20.3
2022-10-01T14:10:57.167Z,20.6
2022-10-01T14:15:59.366Z,20.3
2022-10-01T14:21:01.680Z,20.3
2022-10-01T14:26:04.353Z,20.3
2022-10-01T14:31:06.465Z,20.3
2022-10-01T14:36:08.589Z,20.2
2022-10-01T14:41:10.533Z,20.1
2022-10-01T14:46:12.807Z,19.9
2022-10-01T14:51:14.826Z,19.8
2022-10-01T14:56:17.216Z,19.7
2022-10-01T15:01:19.133Z,19.6
2022-10-01T15:06:21.172Z,19.6
2022-10-01T15:11:23.549Z,19.5
2022-10-01T15:16:25.946Z,19.4
2022-10-01T15:21:27.931Z,19.3
2022-10-01T15:26:30.285Z,19
2022-10-01T15:31:32.781Z,18.9
2022-10-01T15:36:35.849Z,18.8
2022-10-01T15:41:38.929Z,18.7
2022-10-01T15:46:41.930Z,18.6
2022-10-01T15:51:44.083Z,18.6
2022-10-01T15:56:46.092Z,18.4
2022-10-01T16:01:48.192Z,18.3
2022-10-01T16:06:50.266Z,18.2
2022-10-01T16:11:52.221Z,18
2022-10-01T16:16:54.286Z,18
2022-10-01T16:21:56.230Z,17.9
2022-10-01T16:26:58.137Z,17.8
2022-10-01T16:32:00.195Z,17.6
2022-10-01T16:37:02.288Z,17.5
2022-10-01T16:42:25.732Z,17.4
2022-10-01T16:47:07.669Z,17.4
2022-10-01T16:52:11.124Z,17.4
2022-10-01T16:57:13.454Z,17.3
2022-10-01T17:02:15.534Z,17.3
2022-10-01T17:07:18.432Z,17.1
2022-10-01T17:12:20.415Z,17.1
2022-10-01T17:17:22.608Z,17.2
2022-10-01T17:22:24.573Z,17.1
2022-10-01T17:27:26.527Z,17.1
2022-10-01T17:32:28.981Z,16.7
2022-10-01T17:37:30.900Z,16.7
2022-10-01T17:42:32.782Z,16.6
2022-10-01T17:47:34.772Z,16.5
2022-10-01T17:52:37.030Z,16.1
2022-10-01T17:57:39.178Z,15.9
2022-10-01T18:07:45.314Z,15.6
2022-10-01T18:12:47.354Z,15.6
2022-10-01T18:22:54.838Z,15.4
2022-10-01T18:27:56.853Z,15.4
2022-10-01T18:32:58.922Z,15.4
2022-10-01T18:38:00.891Z,15.3
2022-10-01T18:43:02.762Z,15.3
2022-10-01T18:48:04.740Z,15.3
2022-10-01T18:53:06.693Z,15.3
2022-10-01T18:58:08.854Z,15.3
2022-10-01T19:03:10.759Z,15.3
2022-10-01T19:08:13.007Z,15.3
2022-10-01T19:13:15.153Z,15.2
2022-10-01T19:18:17.222Z,15.2
2022-10-01T19:23:19.127Z,15.1
2022-10-01T19:28:21.208Z,15.1
2022-10-01T19:33:23.323Z,15
2022-10-01T19:38:25.701Z,14.8
2022-10-01T19:43:28.183Z,14.8
2022-10-01T19:48:30.896Z,14.7
2022-10-01T19:53:32.946Z,14.7
2022-10-01T19:58:34.888Z,14.6
2022-10-01T20:03:36.861Z,14.5
2022-10-01T20:08:38.977Z,14.5
2022-10-01T20:13:40.923Z,14.5
2022-10-01T20:18:42.956Z,14.5
2022-10-01T20:23:44.825Z,14.5
2022-10-01T20:28:46.874Z,14.4
2022-10-01T20:33:48.885Z,14.4
2022-10-01T20:38:50.959Z,14.3
2022-10-01T20:43:52.943Z,14.3
2022-10-01T20:48:54.964Z,14.2
2022-10-01T20:53:57.443Z,14.1
2022-10-01T20:58:59.554Z,14.1
2022-10-01T21:04:01.420Z,14.2
2022-10-01T21:09:04.343Z,14.1
2022-10-01T21:14:06.251Z,14
2022-10-01T21:19:08.385Z,14
2022-10-01T21:24:10.911Z,13.9
2022-10-01T21:29:12.887Z,13.9
2022-10-01T21:34:14.805Z,13.8
2022-10-01T21:39:17.313Z,13.7
2022-10-01T21:44:19.352Z,13.7
2022-10-01T21:49:21.251Z,13.7
2022-10-01T21:54:23.290Z,13.6
2022-10-01T21:59:25.479Z,13.6
2022-10-01T22:04:27.423Z,13.6
2022-10-01T22:09:29.798Z,13.6
2022-10-01T22:14:31.741Z,13.5
2022-10-01T22:19:33.661Z,13.6
2022-10-01T22:24:35.856Z,13.6
2022-10-01T22:29:37.799Z,13.6
2022-10-01T22:34:39.780Z,13.5
2022-10-01T22:39:41.952Z,13.5
2022-10-01T22:44:43.903Z,13.4
2022-10-01T22:49:45.842Z,13.4
2022-10-01T22:54:47.987Z,13.3
2022-10-01T22:59:50.341Z,13.2
2022-10-01T23:04:52.262Z,13.2
2022-10-01T23:09:54.323Z,13.1
2022-10-01T23:14:56.326Z,13
2022-10-01T23:19:58.248Z,13
2022-10-01T23:25:01.531Z,12.9
2022-10-01T23:30:03.760Z,12.8
2022-10-01T23:35:05.693Z,12.7
2022-10-01T23:40:08.061Z,12.6
2022-10-01T23:45:10.008Z,12.6
2022-10-01T23:50:12.195Z,12.6
2022-10-01T23:55:14.411Z,12.5
